Savoonga, AK

3:20 AM AKST on December 16, 2017 (GMT -0900)
Savoonga

Weather History for PASA - May, 2014

Change the Weather History Date:

Saturday, May 17, 2014

  Actual Average Record
Temperature  
Mean Temperature 32 °F -  
Max Temperature 37 °F 32 °F 42 °F (2002)
Min Temperature 28 °F 26 °F 15 °F (2013)
Degree Days  
Heating Degree Days 32    
Moisture  
Dew Point 29 °F    
Average Humidity 83    
Maximum Humidity 100    
Minimum Humidity 65    
Precipitation  
Precipitation 0.00 in - - ()
Sea Level Pressure  
Sea Level Pressure 30.30 in    
Wind  
Wind Speed 15 mph (WSW)    
Max Wind Speed 18 mph    
Max Gust Speed 23 mph    
Visibility 9 miles    
Events      
Averages and records for this station are not official NWS values.
T = Trace of Precipitation, MM = Missing Value Source: NWS Daily Summary

Daily Weather History Graph

Daily Weather History Graph

Search for Another Location

Airport or City:

Trip Planner

Search our weather history database for the weather conditions in past years. The results will help you decide how hot, cold, wet, or windy it might be!

Date:

Astronomy

May. 17, 2014 Rise Set
Actual Time 6:05 AM AKDT 12:33 AM AKDT
Civil Twilight 4:22 AM AKDT 2:21 AM AKDT
Nautical Twilight Sun does not rise Sun does not rise
Astronomical Twilight Sun does not rise Sun does not rise
Moon 2:43 AM AKDT (5/17) 9:11 AM AKDT (5/17)
Length of Visible Light 21h 59m
Length of Day
18h 28m
Waning Gibbous, 88% of the Moon is Illuminated
May 17
Waning Gibbous
May 21
Last Quarter
May 28
New
Jun 5
First Quarter
Jun 12
Full

Hourly Weather History & Observations

Time (AKDT) Temp. Windchill Dew Point Humidity Pressure Visibility Wind Dir Wind Speed Gust Speed Precip Events Conditions
12:16 AM 33.8 °F 22.8 °F 30.2 °F 87% 30.25 in 10.0 mi WSW 18.4 mph 23.0 mph N/A   Overcast
12:36 AM 33.8 °F 23.2 °F 30.2 °F 87% 30.26 in 10.0 mi WSW 17.3 mph - N/A   Overcast
12:56 AM 33.8 °F 23.5 °F 30.2 °F 87% 30.26 in 10.0 mi WSW 16.1 mph - N/A   Overcast
1:16 AM 33.8 °F 23.2 °F 30.2 °F 87% 30.26 in 10.0 mi WSW 17.3 mph - N/A   Overcast
1:36 AM 32.0 °F 20.8 °F 30.2 °F 93% 30.26 in 10.0 mi WSW 17.3 mph - N/A   Overcast
1:56 AM 32.0 °F 22.1 °F 30.2 °F 93% 30.26 in 10.0 mi WSW 13.8 mph - N/A   Overcast
2:16 AM 32.0 °F 22.5 °F 30.2 °F 93% 30.26 in 10.0 mi WSW 12.7 mph - N/A   Overcast
2:36 AM 32.0 °F 22.1 °F 28.4 °F 87% 30.26 in 10.0 mi WSW 13.8 mph - N/A   Mostly Cloudy
2:56 AM 32.0 °F 23.0 °F 28.4 °F 87% 30.26 in 10.0 mi WSW 11.5 mph - N/A   Mostly Cloudy
3:16 AM 30.2 °F 19.3 °F 28.4 °F 93% 30.26 in 10.0 mi West 15.0 mph - N/A   Mostly Cloudy
3:36 AM 32.0 °F 21.2 °F 28.4 °F 87% 30.26 in 10.0 mi WSW 16.1 mph - N/A   Scattered Clouds
3:56 AM 30.2 °F 19.8 °F 28.4 °F 93% 30.26 in 0.8 mi WSW 13.8 mph - N/A   Overcast
4:16 AM 30.2 °F 21.3 °F 28.4 °F 93% 30.25 in 10.0 mi WSW 10.4 mph - N/A   Scattered Clouds
4:36 AM 30.2 °F 18.1 °F 28.4 °F 93% 30.25 in 0.8 mi West 18.4 mph - N/A   Mostly Cloudy
4:56 AM 30.2 °F 18.1 °F 28.4 °F 93% 30.26 in 0.8 mi West 18.4 mph 23.0 mph N/A   Overcast
5:16 AM 30.2 °F 19.8 °F 28.4 °F 93% 30.26 in 10.0 mi WSW 13.8 mph 21.9 mph N/A   Overcast
5:36 AM 30.2 °F 19.3 °F 28.4 °F 93% 30.26 in 10.0 mi WSW 15.0 mph - N/A   Overcast
5:56 AM 30.2 °F 20.2 °F 28.4 °F 93% 30.26 in 10.0 mi West 12.7 mph - N/A   Overcast
6:16 AM 30.2 °F 19.8 °F 28.4 °F 93% 30.27 in 10.0 mi West 13.8 mph - N/A   Overcast
6:36 AM 30.2 °F 20.2 °F 28.4 °F 93% 30.27 in 10.0 mi West 12.7 mph - N/A   Overcast
6:56 AM 30.2 °F 19.8 °F 28.4 °F 93% 30.27 in 10.0 mi West 13.8 mph - N/A   Overcast
7:16 AM 30.2 °F 19.8 °F 28.4 °F 93% 30.27 in 10.0 mi West 13.8 mph - N/A   Overcast
7:36 AM 28.4 °F 17.5 °F 26.6 °F 93% 30.27 in 0.5 mi WSW 13.8 mph - N/A   Overcast
7:56 AM 30.2 °F 19.3 °F 28.4 °F 93% 30.27 in 1.0 mi WSW 15.0 mph - N/A   Overcast
8:16 AM 28.4 °F 16.6 °F 26.6 °F 93% 30.27 in 2.5 mi WSW 16.1 mph - N/A   Mostly Cloudy
8:36 AM 28.4 °F 17.5 °F 28.4 °F 100% 30.28 in 5.0 mi WSW 13.8 mph - N/A   Overcast
8:56 AM 28.4 °F 16.6 °F 26.6 °F 93% 30.28 in 10.0 mi WSW 16.1 mph - N/A   Mostly Cloudy
9:16 AM 28.4 °F 16.2 °F 28.4 °F 100% 30.28 in 10.0 mi West 17.3 mph - N/A   Mostly Cloudy
9:36 AM 28.4 °F 16.6 °F 26.6 °F 93% 30.28 in 10.0 mi West 16.1 mph - N/A   Mostly Cloudy
9:56 AM 30.2 °F 18.5 °F 28.4 °F 93% 30.29 in 10.0 mi WSW 17.3 mph - N/A   Partly Cloudy
10:16 AM 33.8 °F 23.5 °F 28.4 °F 81% 30.29 in 10.0 mi WSW 16.1 mph - N/A   Clear
10:36 AM 33.8 °F 23.9 °F 26.6 °F 75% 30.30 in 10.0 mi WSW 15.0 mph - N/A   Clear
10:56 AM 33.8 °F 23.2 °F 28.4 °F 81% 30.30 in 10.0 mi WSW 17.3 mph - N/A   Clear
11:16 AM 33.8 °F 23.2 °F 26.6 °F 75% 30.30 in 10.0 mi WSW 17.3 mph - N/A   Clear
11:36 AM 35.6 °F 25.9 °F 28.4 °F 75% 30.30 in 10.0 mi WSW 16.1 mph - N/A   Clear
11:56 AM 35.6 °F 25.9 °F 28.4 °F 75% 30.30 in 10.0 mi WSW 16.1 mph - N/A   Clear
12:16 PM 35.6 °F 25.5 °F 28.4 °F 75% 30.31 in 10.0 mi WSW 17.3 mph - N/A   Clear
12:36 PM 35.6 °F 25.5 °F 28.4 °F 75% 30.31 in 10.0 mi WSW 17.3 mph - N/A   Partly Cloudy
12:56 PM 37.4 °F 28.9 °F 28.4 °F 70% 30.31 in 10.0 mi WSW 13.8 mph - N/A   Mostly Cloudy
1:16 PM 35.6 °F 26.2 °F 28.4 °F 75% 30.31 in 10.0 mi WSW 15.0 mph - N/A   Overcast
1:36 PM 35.6 °F 25.9 °F 28.4 °F 75% 30.32 in 10.0 mi WSW 16.1 mph - N/A   Overcast
1:56 PM 35.6 °F 26.2 °F 28.4 °F 75% 30.32 in 10.0 mi West 15.0 mph 20.7 mph N/A   Overcast
2:16 PM 35.6 °F 25.5 °F 26.6 °F 70% 30.32 in 10.0 mi WSW 17.3 mph - N/A   Mostly Cloudy
2:36 PM 35.6 °F 25.5 °F 28.4 °F 75% 30.33 in 10.0 mi WSW 17.3 mph - N/A   Scattered Clouds
2:56 PM 35.6 °F 25.5 °F 28.4 °F 75% 30.33 in 10.0 mi WSW 17.3 mph - N/A   Partly Cloudy
3:16 PM 35.6 °F 25.5 °F 30.2 °F 81% 30.33 in 10.0 mi WSW 17.3 mph - N/A   Clear
3:36 PM 35.6 °F 26.2 °F 30.2 °F 81% 30.33 in 10.0 mi West 15.0 mph - N/A   Clear
3:56 PM 35.6 °F 25.5 °F 28.4 °F 75% 30.33 in 10.0 mi WSW 17.3 mph - N/A   Clear
4:16 PM 37.4 °F 27.5 °F 28.4 °F 70% 30.33 in 10.0 mi WSW 18.4 mph - N/A   Clear
4:36 PM 37.4 °F 27.8 °F 26.6 °F 65% 30.33 in 10.0 mi WSW 17.3 mph - N/A   Clear
4:56 PM 37.4 °F 28.2 °F 28.4 °F 70% 30.33 in 10.0 mi WSW 16.1 mph - N/A   Clear
5:16 PM 35.6 °F 26.2 °F 28.4 °F 75% 30.33 in 10.0 mi WSW 15.0 mph - N/A   Clear
5:36 PM 35.6 °F 26.6 °F 28.4 °F 75% 30.33 in 10.0 mi West 13.8 mph - N/A   Clear
5:56 PM 35.6 °F 28.0 °F 28.4 °F 75% 30.33 in 10.0 mi West 10.4 mph - N/A   Clear
6:16 PM 35.6 °F 26.2 °F 30.2 °F 81% 30.33 in 10.0 mi West 15.0 mph - N/A   Clear
6:36 PM 35.6 °F 27.1 °F 30.2 °F 81% 30.32 in 10.0 mi West 12.7 mph - N/A   Clear
6:56 PM 35.6 °F 26.6 °F 28.4 °F 75% 30.33 in 10.0 mi West 13.8 mph - N/A   Clear
7:16 PM 37.4 °F 28.9 °F 28.4 °F 70% 30.33 in 10.0 mi WSW 13.8 mph - N/A   Clear
7:36 PM 37.4 °F 29.8 °F 28.4 °F 70% 30.33 in 10.0 mi West 11.5 mph - N/A   Clear
7:56 PM 37.4 °F 29.3 °F 28.4 °F 70% 30.33 in 10.0 mi West 12.7 mph - N/A   Partly Cloudy
8:16 PM 35.6 °F 27.5 °F 28.4 °F 75% 30.33 in 10.0 mi WSW 11.5 mph - N/A   Partly Cloudy
8:36 PM 35.6 °F 27.1 °F 28.4 °F 75% 30.33 in 10.0 mi WSW 12.7 mph - N/A   Clear
8:56 PM 35.6 °F 27.5 °F 28.4 °F 75% 30.33 in 10.0 mi West 11.5 mph - N/A   Clear
9:16 PM 35.6 °F 25.9 °F 30.2 °F 81% 30.32 in 10.0 mi WSW 16.1 mph - N/A   Clear
9:36 PM 35.6 °F 26.6 °F 30.2 °F 81% 30.31 in 10.0 mi WSW 13.8 mph - N/A   Clear
9:56 PM 35.6 °F 27.1 °F 30.2 °F 81% 30.32 in 10.0 mi West 12.7 mph - N/A   Clear
10:16 PM 35.6 °F 26.6 °F 30.2 °F 81% 30.31 in 10.0 mi WSW 13.8 mph - N/A   Clear
10:36 PM 35.6 °F 25.9 °F 28.4 °F 75% 30.31 in 10.0 mi WSW 16.1 mph - N/A   Clear
10:56 PM 35.6 °F 27.1 °F 28.4 °F 75% 30.32 in 10.0 mi WSW 12.7 mph - N/A   Clear
11:16 PM 33.8 °F 24.8 °F 28.4 °F 81% 30.32 in 10.0 mi WSW 12.7 mph - N/A   Clear
11:36 PM 33.8 °F 24.3 °F 28.4 °F 81% 30.32 in 10.0 mi WSW 13.8 mph - N/A   Clear
11:56 PM 33.8 °F 23.2 °F 28.4 °F 81% 30.31 in 10.0 mi WSW 17.3 mph - N/A   Clear